sensor_id;sensor_type;location;lat;lon;timestamp;P1;durP1;ratioP1;P2;durP2;ratioP2
80836;SDS011;70251;60.008;30.404;2023-11-19T00:00:41;3.70;;;0.60;;
80836;SDS011;70251;60.008;30.404;2023-11-19T00:03:06;2.27;;;0.30;;
80836;SDS011;70251;60.008;30.404;2023-11-19T00:05:33;2.45;;;0.40;;
80836;SDS011;70251;60.008;30.404;2023-11-19T00:07:59;6.43;;;0.50;;
80836;SDS011;70251;60.008;30.404;2023-11-19T00:10:24;3.27;;;0.70;;
80836;SDS011;70251;60.008;30.404;2023-11-19T00:12:50;1.65;;;0.30;;
80836;SDS011;70251;60.008;30.404;2023-11-19T00:15:16;4.07;;;0.50;;
80836;SDS011;70251;60.008;30.404;2023-11-19T00:17:44;3.28;;;0.40;;
80836;SDS011;70251;60.008;30.404;2023-11-19T00:20:14;3.50;;;0.60;;
80836;SDS011;70251;60.008;30.404;2023-11-19T00:22:41;4.68;;;0.60;;
80836;SDS011;70251;60.008;30.404;2023-11-19T00:25:08;3.20;;;0.37;;
80836;SDS011;70251;60.008;30.404;2023-11-19T00:27:37;2.67;;;0.40;;
80836;SDS011;70251;60.008;30.404;2023-11-19T00:30:05;3.17;;;0.30;;
80836;SDS011;70251;60.008;30.404;2023-11-19T00:32:33;3.55;;;0.50;;
80836;SDS011;70251;60.008;30.404;2023-11-19T00:34:59;3.30;;;0.77;;
80836;SDS011;70251;60.008;30.404;2023-11-19T00:37:25;5.82;;;0.63;;
80836;SDS011;70251;60.008;30.404;2023-11-19T00:39:51;3.53;;;0.60;;
80836;SDS011;70251;60.008;30.404;2023-11-19T00:42:18;3.13;;;0.50;;
80836;SDS011;70251;60.008;30.404;2023-11-19T00:44:44;3.67;;;0.43;;
80836;SDS011;70251;60.008;30.404;2023-11-19T00:47:11;3.53;;;0.53;;
80836;SDS011;70251;60.008;30.404;2023-11-19T00:49:36;2.58;;;0.20;;
80836;SDS011;70251;60.008;30.404;2023-11-19T00:52:02;2.58;;;0.45;;
80836;SDS011;70251;60.008;30.404;2023-11-19T00:54:28;4.20;;;0.50;;
80836;SDS011;70251;60.008;30.404;2023-11-19T00:56:54;5.50;;;0.65;;
80836;SDS011;70251;60.008;30.404;2023-11-19T00:59:20;5.57;;;0.80;;
80836;SDS011;70251;60.008;30.404;2023-11-19T01:01:46;3.27;;;0.60;;
80836;SDS011;70251;60.008;30.404;2023-11-19T01:04:16;5.07;;;0.60;;
80836;SDS011;70251;60.008;30.404;2023-11-19T01:06:42;2.95;;;0.50;;
80836;SDS011;70251;60.008;30.404;2023-11-19T01:09:08;2.50;;;0.40;;
80836;SDS011;70251;60.008;30.404;2023-11-19T01:11:36;3.42;;;0.60;;
80836;SDS011;70251;60.008;30.404;2023-11-19T01:14:05;2.70;;;0.40;;
80836;SDS011;70251;60.008;30.404;2023-11-19T01:16:30;2.47;;;0.40;;
80836;SDS011;70251;60.008;30.404;2023-11-19T01:18:56;2.97;;;0.50;;
80836;SDS011;70251;60.008;30.404;2023-11-19T01:21:22;2.20;;;0.30;;
80836;SDS011;70251;60.008;30.404;2023-11-19T01:23:47;2.87;;;0.50;;
80836;SDS011;70251;60.008;30.404;2023-11-19T01:26:13;2.65;;;0.40;;
80836;SDS011;70251;60.008;30.404;2023-11-19T01:28:39;1.90;;;0.30;;
80836;SDS011;70251;60.008;30.404;2023-11-19T01:31:11;3.63;;;0.40;;
80836;SDS011;70251;60.008;30.404;2023-11-19T01:33:38;2.80;;;0.22;;
80836;SDS011;70251;60.008;30.404;2023-11-19T01:36:05;2.10;;;0.20;;
80836;SDS011;70251;60.008;30.404;2023-11-19T01:38:34;1.38;;;0.20;;
80836;SDS011;70251;60.008;30.404;2023-11-19T01:41:00;2.83;;;0.30;;
80836;SDS011;70251;60.008;30.404;2023-11-19T01:43:38;1.47;;;0.20;;
80836;SDS011;70251;60.008;30.404;2023-11-19T01:46:13;1.15;;;0.10;;
80836;SDS011;70251;60.008;30.404;2023-11-19T01:48:42;2.13;;;0.15;;
80836;SDS011;70251;60.008;30.404;2023-11-19T01:51:11;1.45;;;0.20;;
80836;SDS011;70251;60.008;30.404;2023-11-19T01:53:42;1.30;;;0.10;;
80836;SDS011;70251;60.008;30.404;2023-11-19T01:56:13;3.23;;;0.53;;
80836;SDS011;70251;60.008;30.404;2023-11-19T01:58:41;2.28;;;0.30;;
80836;SDS011;70251;60.008;30.404;2023-11-19T02:01:10;1.15;;;0.10;;
80836;SDS011;70251;60.008;30.404;2023-11-19T02:03:36;2.65;;;0.55;;
80836;SDS011;70251;60.008;30.404;2023-11-19T02:06:03;1.98;;;0.43;;
80836;SDS011;70251;60.008;30.404;2023-11-19T02:08:30;2.10;;;0.23;;
80836;SDS011;70251;60.008;30.404;2023-11-19T02:10:56;4.32;;;0.40;;
80836;SDS011;70251;60.008;30.404;2023-11-19T02:13:22;2.70;;;0.45;;
80836;SDS011;70251;60.008;30.404;2023-11-19T02:15:48;4.38;;;0.75;;
80836;SDS011;70251;60.008;30.404;2023-11-19T02:18:17;5.17;;;0.60;;
80836;SDS011;70251;60.008;30.404;2023-11-19T02:20:47;4.55;;;0.63;;
80836;SDS011;70251;60.008;30.404;2023-11-19T02:23:17;2.47;;;0.30;;
80836;SDS011;70251;60.008;30.404;2023-11-19T02:28:54;3.03;;;0.40;;
80836;SDS011;70251;60.008;30.404;2023-11-19T02:31:20;3.22;;;0.43;;
80836;SDS011;70251;60.008;30.404;2023-11-19T02:33:45;2.07;;;0.30;;
80836;SDS011;70251;60.008;30.404;2023-11-19T02:36:12;2.70;;;0.47;;
80836;SDS011;70251;60.008;30.404;2023-11-19T02:38:38;3.55;;;0.40;;
80836;SDS011;70251;60.008;30.404;2023-11-19T02:41:04;3.57;;;0.70;;
80836;SDS011;70251;60.008;30.404;2023-11-19T02:43:31;2.25;;;0.30;;
80836;SDS011;70251;60.008;30.404;2023-11-19T02:46:05;2.72;;;0.30;;
80836;SDS011;70251;60.008;30.404;2023-11-19T02:48:36;2.07;;;0.20;;
80836;SDS011;70251;60.008;30.404;2023-11-19T02:51:05;1.05;;;0.17;;
80836;SDS011;70251;60.008;30.404;2023-11-19T02:53:35;4.28;;;0.30;;
80836;SDS011;70251;60.008;30.404;2023-11-19T02:56:17;3.10;;;0.35;;
80836;SDS011;70251;60.008;30.404;2023-11-19T02:58:51;3.10;;;0.50;;
80836;SDS011;70251;60.008;30.404;2023-11-19T03:01:23;4.23;;;0.40;;
80836;SDS011;70251;60.008;30.404;2023-11-19T03:03:55;2.20;;;0.22;;
80836;SDS011;70251;60.008;30.404;2023-11-19T03:06:22;2.17;;;0.38;;
80836;SDS011;70251;60.008;30.404;2023-11-19T03:08:47;2.63;;;0.20;;
80836;SDS011;70251;60.008;30.404;2023-11-19T03:11:14;2.35;;;0.30;;
80836;SDS011;70251;60.008;30.404;2023-11-19T03:13:40;2.97;;;0.55;;
80836;SDS011;70251;60.008;30.404;2023-11-19T03:16:11;5.00;;;0.65;;
80836;SDS011;70251;60.008;30.404;2023-11-19T03:18:38;2.17;;;0.27;;
80836;SDS011;70251;60.008;30.404;2023-11-19T03:21:07;2.40;;;0.28;;
80836;SDS011;70251;60.008;30.404;2023-11-19T03:23:33;2.15;;;0.30;;
80836;SDS011;70251;60.008;30.404;2023-11-19T03:26:00;2.75;;;0.40;;
80836;SDS011;70251;60.008;30.404;2023-11-19T03:28:29;3.10;;;0.30;;
80836;SDS011;70251;60.008;30.404;2023-11-19T03:30:56;3.00;;;0.50;;
80836;SDS011;70251;60.008;30.404;2023-11-19T03:33:21;2.15;;;0.30;;
80836;SDS011;70251;60.008;30.404;2023-11-19T03:35:47;3.67;;;0.40;;
80836;SDS011;70251;60.008;30.404;2023-11-19T03:38:13;2.08;;;0.20;;
80836;SDS011;70251;60.008;30.404;2023-11-19T03:40:39;2.13;;;0.32;;
80836;SDS011;70251;60.008;30.404;2023-11-19T03:43:06;4.90;;;0.50;;
80836;SDS011;70251;60.008;30.404;2023-11-19T03:45:31;4.13;;;0.30;;
80836;SDS011;70251;60.008;30.404;2023-11-19T03:47:57;3.87;;;0.27;;
80836;SDS011;70251;60.008;30.404;2023-11-19T03:50:22;2.65;;;0.38;;
80836;SDS011;70251;60.008;30.404;2023-11-19T03:52:49;4.03;;;0.30;;
80836;SDS011;70251;60.008;30.404;2023-11-19T03:55:17;9.38;;;0.50;;
80836;SDS011;70251;60.008;30.404;2023-11-19T03:57:46;1.83;;;0.28;;
80836;SDS011;70251;60.008;30.404;2023-11-19T04:00:13;1.73;;;0.25;;
80836;SDS011;70251;60.008;30.404;2023-11-19T04:02:40;2.03;;;0.20;;
80836;SDS011;70251;60.008;30.404;2023-11-19T04:05:06;1.98;;;0.25;;
80836;SDS011;70251;60.008;30.404;2023-11-19T04:07:32;1.75;;;0.20;;
80836;SDS011;70251;60.008;30.404;2023-11-19T04:09:58;1.95;;;0.30;;
80836;SDS011;70251;60.008;30.404;2023-11-19T04:12:24;1.53;;;0.23;;
80836;SDS011;70251;60.008;30.404;2023-11-19T04:14:50;3.20;;;0.63;;
80836;SDS011;70251;60.008;30.404;2023-11-19T04:17:15;4.90;;;0.23;;
80836;SDS011;70251;60.008;30.404;2023-11-19T04:19:41;3.25;;;0.30;;
80836;SDS011;70251;60.008;30.404;2023-11-19T04:22:07;2.33;;;0.13;;
80836;SDS011;70251;60.008;30.404;2023-11-19T04:24:34;2.17;;;0.30;;
80836;SDS011;70251;60.008;30.404;2023-11-19T04:27:00;3.38;;;0.35;;
80836;SDS011;70251;60.008;30.404;2023-11-19T04:29:26;3.53;;;0.27;;
80836;SDS011;70251;60.008;30.404;2023-11-19T04:31:51;2.63;;;0.50;;
80836;SDS011;70251;60.008;30.404;2023-11-19T04:34:17;3.97;;;0.40;;
80836;SDS011;70251;60.008;30.404;2023-11-19T04:36:42;3.13;;;0.20;;
80836;SDS011;70251;60.008;30.404;2023-11-19T04:39:09;3.67;;;0.32;;
80836;SDS011;70251;60.008;30.404;2023-11-19T04:41:45;3.58;;;0.40;;
80836;SDS011;70251;60.008;30.404;2023-11-19T04:44:12;2.08;;;0.40;;
80836;SDS011;70251;60.008;30.404;2023-11-19T04:46:38;5.17;;;0.33;;
80836;SDS011;70251;60.008;30.404;2023-11-19T04:49:03;2.97;;;0.23;;
80836;SDS011;70251;60.008;30.404;2023-11-19T04:51:37;3.05;;;0.47;;
80836;SDS011;70251;60.008;30.404;2023-11-19T04:54:10;3.20;;;0.30;;
80836;SDS011;70251;60.008;30.404;2023-11-19T04:56:38;4.88;;;0.40;;
80836;SDS011;70251;60.008;30.404;2023-11-19T04:59:04;2.55;;;0.40;;
80836;SDS011;70251;60.008;30.404;2023-11-19T05:01:34;3.40;;;0.50;;
80836;SDS011;70251;60.008;30.404;2023-11-19T05:04:00;4.40;;;0.40;;
80836;SDS011;70251;60.008;30.404;2023-11-19T05:06:30;6.50;;;1.10;;
80836;SDS011;70251;60.008;30.404;2023-11-19T05:08:57;4.38;;;0.75;;
80836;SDS011;70251;60.008;30.404;2023-11-19T05:11:26;3.72;;;0.60;;
80836;SDS011;70251;60.008;30.404;2023-11-19T05:13:53;4.40;;;0.60;;
80836;SDS011;70251;60.008;30.404;2023-11-19T05:16:19;4.55;;;0.60;;
80836;SDS011;70251;60.008;30.404;2023-11-19T05:18:46;2.50;;;0.50;;
80836;SDS011;70251;60.008;30.404;2023-11-19T05:21:12;5.10;;;0.82;;
80836;SDS011;70251;60.008;30.404;2023-11-19T05:23:37;3.03;;;0.47;;
80836;SDS011;70251;60.008;30.404;2023-11-19T05:26:04;6.78;;;0.60;;
80836;SDS011;70251;60.008;30.404;2023-11-19T05:28:30;6.97;;;0.80;;
80836;SDS011;70251;60.008;30.404;2023-11-19T05:30:57;3.90;;;0.47;;
80836;SDS011;70251;60.008;30.404;2023-11-19T05:33:23;6.33;;;0.77;;
80836;SDS011;70251;60.008;30.404;2023-11-19T05:35:49;3.60;;;0.60;;
80836;SDS011;70251;60.008;30.404;2023-11-19T05:38:15;4.80;;;0.60;;
80836;SDS011;70251;60.008;30.404;2023-11-19T05:40:41;5.00;;;0.70;;
80836;SDS011;70251;60.008;30.404;2023-11-19T05:43:07;4.95;;;0.98;;
80836;SDS011;70251;60.008;30.404;2023-11-19T05:45:33;6.23;;;0.63;;
80836;SDS011;70251;60.008;30.404;2023-11-19T05:47:58;3.42;;;0.60;;
80836;SDS011;70251;60.008;30.404;2023-11-19T05:50:27;6.23;;;0.80;;
80836;SDS011;70251;60.008;30.404;2023-11-19T05:52:52;4.28;;;0.80;;
80836;SDS011;70251;60.008;30.404;2023-11-19T05:55:19;1.50;;;0.20;;
80836;SDS011;70251;60.008;30.404;2023-11-19T05:57:45;3.80;;;0.50;;
80836;SDS011;70251;60.008;30.404;2023-11-19T06:00:11;6.43;;;0.90;;
80836;SDS011;70251;60.008;30.404;2023-11-19T06:02:38;3.80;;;0.60;;
80836;SDS011;70251;60.008;30.404;2023-11-19T06:05:04;4.20;;;0.60;;
80836;SDS011;70251;60.008;30.404;2023-11-19T06:07:32;7.50;;;0.70;;
80836;SDS011;70251;60.008;30.404;2023-11-19T06:09:58;4.20;;;0.60;;
80836;SDS011;70251;60.008;30.404;2023-11-19T06:12:28;3.65;;;0.65;;
80836;SDS011;70251;60.008;30.404;2023-11-19T06:14:54;4.80;;;0.40;;
80836;SDS011;70251;60.008;30.404;2023-11-19T06:17:20;10.63;;;1.10;;
80836;SDS011;70251;60.008;30.404;2023-11-19T06:19:46;3.45;;;0.45;;
80836;SDS011;70251;60.008;30.404;2023-11-19T06:22:11;6.00;;;0.67;;
80836;SDS011;70251;60.008;30.404;2023-11-19T06:24:40;9.73;;;1.00;;
80836;SDS011;70251;60.008;30.404;2023-11-19T06:27:05;3.53;;;0.40;;
80836;SDS011;70251;60.008;30.404;2023-11-19T06:29:31;2.33;;;0.43;;
80836;SDS011;70251;60.008;30.404;2023-11-19T06:31:57;4.17;;;0.30;;
80836;SDS011;70251;60.008;30.404;2023-11-19T06:34:23;4.32;;;0.70;;
80836;SDS011;70251;60.008;30.404;2023-11-19T06:36:48;9.65;;;0.80;;
80836;SDS011;70251;60.008;30.404;2023-11-19T06:39:18;4.83;;;0.67;;
80836;SDS011;70251;60.008;30.404;2023-11-19T06:41:46;4.00;;;0.60;;
80836;SDS011;70251;60.008;30.404;2023-11-19T06:44:13;8.35;;;1.00;;
80836;SDS011;70251;60.008;30.404;2023-11-19T06:46:39;6.90;;;0.70;;
80836;SDS011;70251;60.008;30.404;2023-11-19T06:49:05;6.47;;;1.27;;
80836;SDS011;70251;60.008;30.404;2023-11-19T06:51:33;4.10;;;0.55;;
80836;SDS011;70251;60.008;30.404;2023-11-19T06:53:59;3.42;;;0.40;;
80836;SDS011;70251;60.008;30.404;2023-11-19T06:56:35;6.07;;;0.90;;
80836;SDS011;70251;60.008;30.404;2023-11-19T06:59:00;8.88;;;0.90;;
80836;SDS011;70251;60.008;30.404;2023-11-19T07:01:26;4.30;;;0.63;;
80836;SDS011;70251;60.008;30.404;2023-11-19T07:03:52;4.73;;;0.90;;
80836;SDS011;70251;60.008;30.404;2023-11-19T07:06:18;5.15;;;0.80;;
80836;SDS011;70251;60.008;30.404;2023-11-19T07:08:44;5.13;;;0.70;;
80836;SDS011;70251;60.008;30.404;2023-11-19T07:11:13;6.95;;;0.73;;
80836;SDS011;70251;60.008;30.404;2023-11-19T07:13:42;3.97;;;0.50;;
80836;SDS011;70251;60.008;30.404;2023-11-19T07:16:08;3.60;;;0.40;;
80836;SDS011;70251;60.008;30.404;2023-11-19T07:18:37;12.45;;;1.00;;
80836;SDS011;70251;60.008;30.404;2023-11-19T07:21:06;3.63;;;0.83;;
80836;SDS011;70251;60.008;30.404;2023-11-19T07:23:32;6.47;;;0.52;;
80836;SDS011;70251;60.008;30.404;2023-11-19T07:26:04;3.45;;;0.60;;
80836;SDS011;70251;60.008;30.404;2023-11-19T07:28:30;9.73;;;0.65;;
80836;SDS011;70251;60.008;30.404;2023-11-19T07:30:56;10.80;;;0.77;;
80836;SDS011;70251;60.008;30.404;2023-11-19T07:33:22;3.85;;;0.70;;
80836;SDS011;70251;60.008;30.404;2023-11-19T07:35:47;4.70;;;0.83;;
80836;SDS011;70251;60.008;30.404;2023-11-19T07:38:14;3.05;;;0.60;;
80836;SDS011;70251;60.008;30.404;2023-11-19T07:40:39;7.65;;;0.70;;
80836;SDS011;70251;60.008;30.404;2023-11-19T07:43:05;3.33;;;0.47;;
80836;SDS011;70251;60.008;30.404;2023-11-19T07:45:37;7.30;;;0.88;;
80836;SDS011;70251;60.008;30.404;2023-11-19T07:48:06;4.35;;;0.40;;
80836;SDS011;70251;60.008;30.404;2023-11-19T07:50:32;5.97;;;0.70;;
80836;SDS011;70251;60.008;30.404;2023-11-19T07:52:57;6.45;;;0.43;;
80836;SDS011;70251;60.008;30.404;2023-11-19T07:55:28;10.10;;;0.87;;
80836;SDS011;70251;60.008;30.404;2023-11-19T07:57:54;7.75;;;0.63;;
80836;SDS011;70251;60.008;30.404;2023-11-19T08:00:20;4.35;;;0.70;;
80836;SDS011;70251;60.008;30.404;2023-11-19T08:02:45;1.93;;;0.33;;
80836;SDS011;70251;60.008;30.404;2023-11-19T08:05:11;6.37;;;0.53;;
80836;SDS011;70251;60.008;30.404;2023-11-19T08:07:37;13.15;;;1.00;;
80836;SDS011;70251;60.008;30.404;2023-11-19T08:10:04;8.83;;;1.10;;
80836;SDS011;70251;60.008;30.404;2023-11-19T08:12:30;4.22;;;0.70;;
80836;SDS011;70251;60.008;30.404;2023-11-19T08:15:02;8.50;;;0.93;;
80836;SDS011;70251;60.008;30.404;2023-11-19T08:17:29;12.45;;;1.38;;
80836;SDS011;70251;60.008;30.404;2023-11-19T08:19:55;8.43;;;1.73;;
80836;SDS011;70251;60.008;30.404;2023-11-19T08:22:23;5.40;;;0.82;;
80836;SDS011;70251;60.008;30.404;2023-11-19T08:24:48;3.83;;;0.80;;
80836;SDS011;70251;60.008;30.404;2023-11-19T08:27:14;3.15;;;0.75;;
80836;SDS011;70251;60.008;30.404;2023-11-19T08:29:40;2.50;;;0.43;;
80836;SDS011;70251;60.008;30.404;2023-11-19T08:32:05;8.80;;;1.45;;
80836;SDS011;70251;60.008;30.404;2023-11-19T08:34:32;11.73;;;1.30;;
80836;SDS011;70251;60.008;30.404;2023-11-19T08:36:58;8.52;;;1.05;;
80836;SDS011;70251;60.008;30.404;2023-11-19T08:39:24;7.72;;;0.82;;
80836;SDS011;70251;60.008;30.404;2023-11-19T08:41:50;14.23;;;1.97;;
80836;SDS011;70251;60.008;30.404;2023-11-19T08:44:18;5.80;;;1.08;;
80836;SDS011;70251;60.008;30.404;2023-11-19T08:46:47;6.38;;;1.00;;
80836;SDS011;70251;60.008;30.404;2023-11-19T08:49:16;8.45;;;0.90;;
80836;SDS011;70251;60.008;30.404;2023-11-19T08:51:42;9.00;;;1.00;;
80836;SDS011;70251;60.008;30.404;2023-11-19T08:54:08;4.80;;;0.50;;
80836;SDS011;70251;60.008;30.404;2023-11-19T08:56:33;5.43;;;0.90;;
80836;SDS011;70251;60.008;30.404;2023-11-19T08:59:00;10.23;;;1.33;;
80836;SDS011;70251;60.008;30.404;2023-11-19T09:01:26;11.85;;;1.42;;
80836;SDS011;70251;60.008;30.404;2023-11-19T09:03:52;8.67;;;1.30;;
80836;SDS011;70251;60.008;30.404;2023-11-19T09:06:18;5.07;;;1.10;;
80836;SDS011;70251;60.008;30.404;2023-11-19T09:08:43;6.32;;;0.80;;
80836;SDS011;70251;60.008;30.404;2023-11-19T09:11:09;7.23;;;0.90;;
80836;SDS011;70251;60.008;30.404;2023-11-19T09:13:37;8.02;;;1.95;;
80836;SDS011;70251;60.008;30.404;2023-11-19T09:16:03;10.43;;;1.50;;
80836;SDS011;70251;60.008;30.404;2023-11-19T09:18:30;8.07;;;1.33;;
80836;SDS011;70251;60.008;30.404;2023-11-19T09:20:57;13.35;;;2.22;;
80836;SDS011;70251;60.008;30.404;2023-11-19T09:23:23;10.68;;;1.65;;
80836;SDS011;70251;60.008;30.404;2023-11-19T09:25:54;11.90;;;1.42;;
80836;SDS011;70251;60.008;30.404;2023-11-19T09:28:19;11.10;;;1.30;;
80836;SDS011;70251;60.008;30.404;2023-11-19T09:30:45;7.85;;;1.33;;
80836;SDS011;70251;60.008;30.404;2023-11-19T09:33:11;15.73;;;1.57;;
80836;SDS011;70251;60.008;30.404;2023-11-19T09:38:28;7.73;;;1.47;;
80836;SDS011;70251;60.008;30.404;2023-11-19T09:40:54;7.22;;;1.40;;
80836;SDS011;70251;60.008;30.404;2023-11-19T09:43:19;7.80;;;1.50;;
80836;SDS011;70251;60.008;30.404;2023-11-19T09:45:48;16.63;;;1.53;;
80836;SDS011;70251;60.008;30.404;2023-11-19T09:48:18;13.40;;;2.00;;
80836;SDS011;70251;60.008;30.404;2023-11-19T09:50:47;12.75;;;1.38;;
80836;SDS011;70251;60.008;30.404;2023-11-19T09:53:14;9.82;;;2.20;;
80836;SDS011;70251;60.008;30.404;2023-11-19T09:55:43;12.53;;;2.43;;
80836;SDS011;70251;60.008;30.404;2023-11-19T09:58:10;12.05;;;1.85;;
80836;SDS011;70251;60.008;30.404;2023-11-19T10:00:39;15.95;;;2.38;;
80836;SDS011;70251;60.008;30.404;2023-11-19T10:03:07;9.70;;;2.20;;
80836;SDS011;70251;60.008;30.404;2023-11-19T10:05:37;5.78;;;1.15;;
80836;SDS011;70251;60.008;30.404;2023-11-19T10:08:04;9.50;;;1.63;;
80836;SDS011;70251;60.008;30.404;2023-11-19T10:10:30;10.25;;;1.88;;
80836;SDS011;70251;60.008;30.404;2023-11-19T10:12:56;8.07;;;1.67;;
80836;SDS011;70251;60.008;30.404;2023-11-19T10:15:25;6.00;;;1.10;;
80836;SDS011;70251;60.008;30.404;2023-11-19T10:17:55;10.00;;;1.50;;
80836;SDS011;70251;60.008;30.404;2023-11-19T10:20:22;9.98;;;2.10;;
80836;SDS011;70251;60.008;30.404;2023-11-19T10:22:48;7.30;;;1.90;;
80836;SDS011;70251;60.008;30.404;2023-11-19T10:25:24;7.53;;;0.90;;
80836;SDS011;70251;60.008;30.404;2023-11-19T10:27:54;10.23;;;2.20;;
80836;SDS011;70251;60.008;30.404;2023-11-19T10:30:21;11.27;;;2.30;;
80836;SDS011;70251;60.008;30.404;2023-11-19T10:33:07;8.77;;;1.63;;
80836;SDS011;70251;60.008;30.404;2023-11-19T10:35:52;13.20;;;1.73;;
80836;SDS011;70251;60.008;30.404;2023-11-19T10:38:24;7.80;;;1.92;;
80836;SDS011;70251;60.008;30.404;2023-11-19T10:40:50;7.05;;;1.23;;
80836;SDS011;70251;60.008;30.404;2023-11-19T10:43:17;7.13;;;1.67;;
80836;SDS011;70251;60.008;30.404;2023-11-19T10:45:42;7.50;;;0.73;;
80836;SDS011;70251;60.008;30.404;2023-11-19T10:48:08;4.38;;;0.82;;
80836;SDS011;70251;60.008;30.404;2023-11-19T10:50:37;7.50;;;1.55;;
80836;SDS011;70251;60.008;30.404;2023-11-19T10:53:04;7.93;;;1.55;;
80836;SDS011;70251;60.008;30.404;2023-11-19T10:55:32;9.00;;;1.60;;
80836;SDS011;70251;60.008;30.404;2023-11-19T10:58:04;7.10;;;0.85;;
80836;SDS011;70251;60.008;30.404;2023-11-19T11:03:25;7.03;;;1.15;;
80836;SDS011;70251;60.008;30.404;2023-11-19T11:05:53;9.02;;;1.48;;
80836;SDS011;70251;60.008;30.404;2023-11-19T11:08:19;4.23;;;0.80;;
80836;SDS011;70251;60.008;30.404;2023-11-19T11:13:19;16.48;;;1.80;;
80836;SDS011;70251;60.008;30.404;2023-11-19T11:15:45;7.90;;;1.40;;
80836;SDS011;70251;60.008;30.404;2023-11-19T11:18:12;7.82;;;1.30;;
80836;SDS011;70251;60.008;30.404;2023-11-19T11:20:39;10.27;;;1.42;;
80836;SDS011;70251;60.008;30.404;2023-11-19T11:28:52;9.43;;;1.20;;
80836;SDS011;70251;60.008;30.404;2023-11-19T11:31:29;17.13;;;1.52;;
80836;SDS011;70251;60.008;30.404;2023-11-19T11:36:53;12.65;;;1.40;;
80836;SDS011;70251;60.008;30.404;2023-11-19T11:39:32;10.13;;;1.27;;
80836;SDS011;70251;60.008;30.404;2023-11-19T11:58:10;1.77;;;0.28;;
80836;SDS011;70251;60.008;30.404;2023-11-19T12:00:37;4.88;;;0.93;;
80836;SDS011;70251;60.008;30.404;2023-11-19T12:03:05;7.57;;;1.20;;
80836;SDS011;70251;60.008;30.404;2023-11-19T12:05:33;11.13;;;1.70;;
80836;SDS011;70251;60.008;30.404;2023-11-19T12:08:04;5.83;;;1.00;;
80836;SDS011;70251;60.008;30.404;2023-11-19T12:10:54;2.58;;;0.60;;
80836;SDS011;70251;60.008;30.404;2023-11-19T12:13:29;3.97;;;0.65;;
80836;SDS011;70251;60.008;30.404;2023-11-19T12:16:16;8.07;;;1.67;;
80836;SDS011;70251;60.008;30.404;2023-11-19T12:18:42;10.32;;;1.70;;
80836;SDS011;70251;60.008;30.404;2023-11-19T12:21:13;6.23;;;1.60;;
80836;SDS011;70251;60.008;30.404;2023-11-19T12:23:59;3.13;;;0.40;;
80836;SDS011;70251;60.008;30.404;2023-11-19T12:26:53;5.43;;;0.70;;
80836;SDS011;70251;60.008;30.404;2023-11-19T12:29:23;6.47;;;1.33;;
80836;SDS011;70251;60.008;30.404;2023-11-19T12:31:53;8.53;;;0.83;;
80836;SDS011;70251;60.008;30.404;2023-11-19T12:34:20;7.20;;;1.23;;
80836;SDS011;70251;60.008;30.404;2023-11-19T12:36:48;6.82;;;1.63;;
80836;SDS011;70251;60.008;30.404;2023-11-19T12:39:14;3.33;;;0.50;;
80836;SDS011;70251;60.008;30.404;2023-11-19T12:41:49;5.97;;;1.20;;
80836;SDS011;70251;60.008;30.404;2023-11-19T12:44:16;6.13;;;1.50;;
80836;SDS011;70251;60.008;30.404;2023-11-19T12:46:42;6.10;;;1.00;;
80836;SDS011;70251;60.008;30.404;2023-11-19T12:49:08;6.38;;;0.70;;
80836;SDS011;70251;60.008;30.404;2023-11-19T12:51:36;5.82;;;1.48;;
80836;SDS011;70251;60.008;30.404;2023-11-19T12:54:02;7.03;;;1.30;;
80836;SDS011;70251;60.008;30.404;2023-11-19T12:56:30;6.53;;;1.27;;
80836;SDS011;70251;60.008;30.404;2023-11-19T12:58:55;4.55;;;1.20;;
80836;SDS011;70251;60.008;30.404;2023-11-19T13:01:26;5.30;;;1.23;;
80836;SDS011;70251;60.008;30.404;2023-11-19T13:03:52;5.28;;;1.00;;
80836;SDS011;70251;60.008;30.404;2023-11-19T13:06:17;7.72;;;1.40;;
80836;SDS011;70251;60.008;30.404;2023-11-19T13:08:49;4.53;;;0.53;;
80836;SDS011;70251;60.008;30.404;2023-11-19T13:11:32;4.13;;;0.70;;
80836;SDS011;70251;60.008;30.404;2023-11-19T13:14:02;5.13;;;1.20;;
80836;SDS011;70251;60.008;30.404;2023-11-19T13:19:15;8.10;;;1.45;;
80836;SDS011;70251;60.008;30.404;2023-11-19T13:21:43;7.70;;;1.47;;
80836;SDS011;70251;60.008;30.404;2023-11-19T13:24:12;3.97;;;0.80;;
80836;SDS011;70251;60.008;30.404;2023-11-19T13:26:38;7.63;;;1.40;;
80836;SDS011;70251;60.008;30.404;2023-11-19T13:29:06;5.78;;;1.27;;
80836;SDS011;70251;60.008;30.404;2023-11-19T13:31:32;7.60;;;1.50;;
80836;SDS011;70251;60.008;30.404;2023-11-19T13:33:57;6.32;;;1.17;;
80836;SDS011;70251;60.008;30.404;2023-11-19T13:36:23;8.93;;;1.17;;
80836;SDS011;70251;60.008;30.404;2023-11-19T13:38:50;3.50;;;0.75;;
80836;SDS011;70251;60.008;30.404;2023-11-19T13:41:16;5.47;;;1.13;;
80836;SDS011;70251;60.008;30.404;2023-11-19T13:43:42;6.07;;;1.10;;
80836;SDS011;70251;60.008;30.404;2023-11-19T13:46:17;8.02;;;1.08;;
80836;SDS011;70251;60.008;30.404;2023-11-19T13:48:43;2.97;;;0.45;;
80836;SDS011;70251;60.008;30.404;2023-11-19T13:51:11;3.80;;;0.88;;
80836;SDS011;70251;60.008;30.404;2023-11-19T13:53:37;4.27;;;0.67;;
80836;SDS011;70251;60.008;30.404;2023-11-19T13:56:06;4.88;;;0.40;;
80836;SDS011;70251;60.008;30.404;2023-11-19T13:58:32;4.03;;;0.85;;
80836;SDS011;70251;60.008;30.404;2023-11-19T14:00:58;6.57;;;1.33;;
80836;SDS011;70251;60.008;30.404;2023-11-19T14:03:23;3.77;;;0.33;;
80836;SDS011;70251;60.008;30.404;2023-11-19T14:05:49;8.32;;;1.10;;
80836;SDS011;70251;60.008;30.404;2023-11-19T14:08:17;6.43;;;1.07;;
80836;SDS011;70251;60.008;30.404;2023-11-19T14:10:43;7.20;;;1.25;;
80836;SDS011;70251;60.008;30.404;2023-11-19T14:13:08;6.37;;;1.10;;
80836;SDS011;70251;60.008;30.404;2023-11-19T14:15:34;5.22;;;1.38;;
80836;SDS011;70251;60.008;30.404;2023-11-19T14:18:01;4.60;;;0.67;;
80836;SDS011;70251;60.008;30.404;2023-11-19T14:20:27;6.05;;;1.30;;
80836;SDS011;70251;60.008;30.404;2023-11-19T14:22:56;8.20;;;1.15;;
80836;SDS011;70251;60.008;30.404;2023-11-19T14:25:22;4.68;;;1.08;;
80836;SDS011;70251;60.008;30.404;2023-11-19T14:27:48;7.10;;;1.60;;
80836;SDS011;70251;60.008;30.404;2023-11-19T14:30:14;8.93;;;1.80;;
80836;SDS011;70251;60.008;30.404;2023-11-19T14:32:40;2.93;;;0.50;;
80836;SDS011;70251;60.008;30.404;2023-11-19T14:35:11;5.78;;;1.38;;
80836;SDS011;70251;60.008;30.404;2023-11-19T14:37:37;5.70;;;0.88;;
80836;SDS011;70251;60.008;30.404;2023-11-19T14:40:05;7.10;;;1.95;;
80836;SDS011;70251;60.008;30.404;2023-11-19T14:42:36;10.50;;;1.58;;
80836;SDS011;70251;60.008;30.404;2023-11-19T14:45:04;5.47;;;1.50;;
80836;SDS011;70251;60.008;30.404;2023-11-19T14:47:31;5.00;;;1.17;;
80836;SDS011;70251;60.008;30.404;2023-11-19T14:50:00;5.85;;;1.42;;
80836;SDS011;70251;60.008;30.404;2023-11-19T14:52:26;6.18;;;1.77;;
80836;SDS011;70251;60.008;30.404;2023-11-19T14:54:52;5.50;;;1.47;;
80836;SDS011;70251;60.008;30.404;2023-11-19T14:57:19;10.25;;;1.40;;
80836;SDS011;70251;60.008;30.404;2023-11-19T14:59:48;7.53;;;1.42;;
80836;SDS011;70251;60.008;30.404;2023-11-19T15:02:13;7.30;;;1.10;;
80836;SDS011;70251;60.008;30.404;2023-11-19T15:04:41;7.70;;;1.70;;
80836;SDS011;70251;60.008;30.404;2023-11-19T15:07:12;6.82;;;1.15;;
80836;SDS011;70251;60.008;30.404;2023-11-19T15:09:38;9.38;;;1.50;;
80836;SDS011;70251;60.008;30.404;2023-11-19T15:12:04;10.98;;;1.20;;
80836;SDS011;70251;60.008;30.404;2023-11-19T15:14:31;5.73;;;1.40;;